createdAt,value
2018-05-10T00:01:23.416Z,13.40
2018-05-10T00:03:51.055Z,16.30
2018-05-10T00:06:18.640Z,12.63
2018-05-10T00:08:46.252Z,14.87
2018-05-10T00:11:13.832Z,14.03
2018-05-10T00:13:41.416Z,14.60
2018-05-10T00:16:09.029Z,13.40
2018-05-10T00:18:36.688Z,14.33
2018-05-10T00:21:04.271Z,15.23
2018-05-10T00:23:31.908Z,13.30
2018-05-10T00:25:59.498Z,14.77
2018-05-10T00:28:27.121Z,13.90
2018-05-10T00:30:54.736Z,14.97
2018-05-10T00:33:22.331Z,13.67
2018-05-10T00:35:49.910Z,15.47
2018-05-10T00:38:17.533Z,14.20
2018-05-10T00:40:45.123Z,13.37
2018-05-10T00:43:12.713Z,15.03
2018-05-10T00:45:40.329Z,14.47
2018-05-10T00:48:07.918Z,14.80
2018-05-10T00:50:35.503Z,15.77
2018-05-10T00:53:03.143Z,17.67
2018-05-10T00:55:36.446Z,16.30
2018-05-10T00:58:04.094Z,16.73
2018-05-10T01:00:31.684Z,15.57
2018-05-10T01:02:59.309Z,14.07
2018-05-10T01:05:26.931Z,15.03
2018-05-10T01:07:54.530Z,17.43
2018-05-10T01:10:22.113Z,14.50
2018-05-10T01:12:49.734Z,15.57
2018-05-10T01:15:17.324Z,16.20
2018-05-10T01:17:44.946Z,16.00
2018-05-10T01:20:12.592Z,15.07
2018-05-10T01:22:40.185Z,16.73
2018-05-10T01:25:07.898Z,17.43
2018-05-10T01:27:35.528Z,15.87
2018-05-10T01:30:03.144Z,15.53
2018-05-10T01:32:30.728Z,17.37
2018-05-10T01:35:10.057Z,17.77
2018-05-10T01:37:37.635Z,16.13
2018-05-10T01:40:05.216Z,18.13
2018-05-10T01:42:32.852Z,18.70
2018-05-10T01:45:00.462Z,16.17
2018-05-10T01:47:28.037Z,15.47
2018-05-10T01:49:55.660Z,18.97
2018-05-10T01:52:23.240Z,19.93
2018-05-10T01:54:50.837Z,18.97
2018-05-10T01:57:18.444Z,20.70
2018-05-10T01:59:46.029Z,19.40
2018-05-10T02:02:13.616Z,20.93
2018-05-10T02:04:41.231Z,20.70
2018-05-10T02:07:08.826Z,22.57
2018-05-10T02:09:36.415Z,22.13
2018-05-10T02:12:04.083Z,20.60
2018-05-10T02:14:31.673Z,23.40
2018-05-10T02:16:59.265Z,24.97
2018-05-10T02:19:26.889Z,22.93
2018-05-10T02:21:54.476Z,23.07
2018-05-10T02:24:22.078Z,23.13
2018-05-10T02:26:49.708Z,23.23
2018-05-10T02:29:17.289Z,24.73
2018-05-10T02:31:44.879Z,25.27
2018-05-10T02:34:12.514Z,24.40
2018-05-10T02:36:40.106Z,27.27
2018-05-10T02:39:07.693Z,23.67
2018-05-10T02:41:35.351Z,24.20
2018-05-10T02:44:02.939Z,25.93
2018-05-10T02:46:30.525Z,23.80
2018-05-10T02:48:58.147Z,24.07
2018-05-10T02:51:25.723Z,22.93
2018-05-10T02:53:53.317Z,24.60
2018-05-10T02:56:20.949Z,24.03
2018-05-10T02:58:48.531Z,23.43
2018-05-10T03:01:16.145Z,23.00
2018-05-10T03:03:43.786Z,22.83
2018-05-10T03:06:11.434Z,23.17
2018-05-10T03:08:39.025Z,22.60
2018-05-10T03:11:06.666Z,21.37
2018-05-10T03:13:34.257Z,21.10
2018-05-10T03:16:01.859Z,21.00
2018-05-10T03:18:29.533Z,19.43
2018-05-10T03:20:57.129Z,20.73
2018-05-10T03:23:24.719Z,21.23
2018-05-10T03:25:52.396Z,20.70
2018-05-10T03:28:20.005Z,19.87
2018-05-10T03:30:47.607Z,19.50
2018-05-10T03:33:15.285Z,20.30
2018-05-10T03:35:42.859Z,21.67
2018-05-10T03:38:10.448Z,19.20
2018-05-10T03:40:38.065Z,19.90
2018-05-10T03:43:05.657Z,15.43
2018-05-10T03:45:33.236Z,17.43
2018-05-10T03:48:00.860Z,16.90
2018-05-10T03:50:28.449Z,20.57
2018-05-10T03:52:56.052Z,22.43
2018-05-10T03:55:23.690Z,21.13
2018-05-10T03:57:51.271Z,18.43
2018-05-10T04:00:18.870Z,20.93
2018-05-10T04:06:15.135Z,20.13
2018-05-10T04:08:54.441Z,17.80
2018-05-10T04:11:25.802Z,17.77
2018-05-10T04:13:53.399Z,19.47
2018-05-10T04:16:21.019Z,17.63
2018-05-10T04:18:48.653Z,22.43
2018-05-10T04:21:16.249Z,18.10
2018-05-10T04:23:43.862Z,17.30
2018-05-10T04:26:11.444Z,18.13
2018-05-10T04:28:39.056Z,17.47
2018-05-10T04:31:06.671Z,18.67
2018-05-10T04:33:34.255Z,19.87
2018-05-10T04:36:01.840Z,14.57
2018-05-10T04:38:29.672Z,25.77
2018-05-10T04:40:57.254Z,16.80
2018-05-10T04:43:24.857Z,18.10
2018-05-10T04:45:52.506Z,18.17
2018-05-10T04:48:20.100Z,15.83
2018-05-10T04:50:47.705Z,16.20
2018-05-10T04:53:15.336Z,15.33
2018-05-10T04:55:42.930Z,15.13
2018-05-10T04:58:10.516Z,14.00
2018-05-10T05:00:38.137Z,16.97
2018-05-10T05:03:05.727Z,14.13
2018-05-10T05:05:33.316Z,14.20
2018-05-10T05:08:00.963Z,13.93
2018-05-10T05:10:28.546Z,15.37
2018-05-10T05:12:56.180Z,14.70
2018-05-10T05:15:23.846Z,15.33
2018-05-10T05:17:52.420Z,15.60
2018-05-10T05:20:20.007Z,15.93
2018-05-10T05:22:47.629Z,15.17
2018-05-10T05:25:15.213Z,15.67
2018-05-10T05:27:42.813Z,12.70
2018-05-10T05:30:10.437Z,15.70
2018-05-10T05:32:38.054Z,17.60
2018-05-10T05:35:05.635Z,14.67
2018-05-10T05:37:33.267Z,15.10
2018-05-10T05:40:00.864Z,14.73
2018-05-10T05:42:28.446Z,15.10
2018-05-10T05:44:56.064Z,14.27
2018-05-10T05:47:23.643Z,15.30
2018-05-10T05:49:51.240Z,16.30
2018-05-10T05:52:18.860Z,15.70
2018-05-10T05:54:46.447Z,14.57
2018-05-10T05:57:14.043Z,13.90
2018-05-10T05:59:41.669Z,14.03
2018-05-10T06:02:09.243Z,14.27
2018-05-10T06:04:36.872Z,13.40
2018-05-10T06:07:04.496Z,14.40
2018-05-10T06:09:32.088Z,9.03
2018-05-10T06:11:59.671Z,10.20
2018-05-10T06:14:27.279Z,8.07
2018-05-10T06:16:54.865Z,8.47
2018-05-10T06:19:22.452Z,7.90
2018-05-10T06:21:50.112Z,7.40
2018-05-10T06:24:17.690Z,8.23
2018-05-10T06:26:45.275Z,7.20
2018-05-10T06:29:13.040Z,6.33
2018-05-10T06:31:40.620Z,6.67
2018-05-10T06:34:08.203Z,7.87
2018-05-10T06:36:35.872Z,7.90
2018-05-10T06:39:03.543Z,7.43
2018-05-10T06:41:31.203Z,11.30
2018-05-10T06:43:58.806Z,7.63
2018-05-10T06:46:26.387Z,6.60
2018-05-10T06:48:53.958Z,7.40
2018-05-10T06:51:21.587Z,8.03
2018-05-10T06:53:49.172Z,7.63
2018-05-10T06:56:16.761Z,7.97
2018-05-10T06:58:44.369Z,7.37
2018-05-10T07:01:11.951Z,6.37
2018-05-10T07:03:39.541Z,5.90
2018-05-10T07:06:07.163Z,5.97
2018-05-10T07:08:35.177Z,6.37
2018-05-10T07:11:02.821Z,4.70
2018-05-10T07:13:30.422Z,6.67
2018-05-10T07:15:57.992Z,6.97
2018-05-10T07:18:25.668Z,5.03
2018-05-10T07:20:53.296Z,7.40
2018-05-10T07:23:20.873Z,6.57
2018-05-10T07:25:48.452Z,7.17
2018-05-10T07:28:16.064Z,7.20
2018-05-10T07:30:43.646Z,6.73
2018-05-10T07:33:11.214Z,7.63
2018-05-10T07:35:38.908Z,7.30
2018-05-10T07:38:06.739Z,6.80
2018-05-10T07:40:34.376Z,7.27
2018-05-10T07:43:02.013Z,7.03
2018-05-10T07:45:29.677Z,5.67
2018-05-10T07:47:57.304Z,6.03
2018-05-10T07:50:24.923Z,5.77
2018-05-10T07:52:52.508Z,6.27
2018-05-10T07:55:20.100Z,6.97
2018-05-10T07:57:47.725Z,7.17
2018-05-10T08:00:15.311Z,7.53
2018-05-10T08:02:42.896Z,7.10
2018-05-10T08:05:10.523Z,8.03
2018-05-10T08:07:38.108Z,6.13
2018-05-10T08:10:05.804Z,6.60
2018-05-10T08:12:33.338Z,5.77
2018-05-10T08:15:00.906Z,5.20
2018-05-10T08:17:28.503Z,7.13
2018-05-10T08:19:56.407Z,5.50
2018-05-10T08:22:24.785Z,6.33
2018-05-10T08:24:52.389Z,6.73
2018-05-10T08:27:20.002Z,6.07
2018-05-10T08:29:49.603Z,6.43
2018-05-10T08:32:17.200Z,5.50
2018-05-10T08:34:44.827Z,4.83
2018-05-10T08:37:12.408Z,6.30
2018-05-10T08:39:39.991Z,5.30
2018-05-10T08:42:07.611Z,6.73
2018-05-10T08:44:35.195Z,5.70
2018-05-10T08:47:02.845Z,6.17
2018-05-10T08:49:30.520Z,4.87
2018-05-10T08:51:58.170Z,4.80
2018-05-10T08:54:25.718Z,5.53
2018-05-10T08:56:53.331Z,6.90
2018-05-10T08:59:20.923Z,6.37
2018-05-10T09:01:48.475Z,5.23
2018-05-10T09:04:16.112Z,6.17
2018-05-10T09:06:43.682Z,5.53
2018-05-10T09:09:11.299Z,4.83
2018-05-10T09:11:38.872Z,6.30
2018-05-10T09:14:06.438Z,6.30
2018-05-10T09:16:34.040Z,5.50
2018-05-10T09:19:01.620Z,7.40
2018-05-10T09:21:29.209Z,5.27
2018-05-10T09:23:56.829Z,6.47
2018-05-10T09:26:24.413Z,5.40
2018-05-10T09:28:52.020Z,5.57
2018-05-10T09:31:19.637Z,6.30
2018-05-10T09:33:47.253Z,6.63
2018-05-10T09:36:14.841Z,6.90
2018-05-10T09:38:42.465Z,8.30
2018-05-10T09:41:10.124Z,4.87
2018-05-10T09:43:37.716Z,7.13
2018-05-10T09:46:05.432Z,6.90
2018-05-10T09:48:32.972Z,5.27
2018-05-10T09:51:00.560Z,5.50
2018-05-10T09:53:28.179Z,7.47
2018-05-10T09:55:55.771Z,6.43
2018-05-10T09:58:23.350Z,6.53
2018-05-10T10:00:50.965Z,6.30
2018-05-10T10:03:18.557Z,6.30
2018-05-10T10:05:46.134Z,8.17
2018-05-10T10:08:13.772Z,6.40
2018-05-10T10:10:41.348Z,7.17
2018-05-10T10:13:08.928Z,6.17
2018-05-10T10:15:36.621Z,6.17
2018-05-10T10:18:04.199Z,7.43
2018-05-10T10:20:31.771Z,8.40
2018-05-10T10:22:59.393Z,5.50
2018-05-10T10:25:26.975Z,7.57
2018-05-10T10:27:54.559Z,6.10
2018-05-10T10:30:22.174Z,6.23
2018-05-10T10:32:49.756Z,6.33
2018-05-10T10:35:17.353Z,6.70
2018-05-10T10:37:44.997Z,6.00
2018-05-10T10:40:12.648Z,6.00
2018-05-10T10:42:40.211Z,4.83
2018-05-10T10:45:07.820Z,5.80
2018-05-10T10:47:35.417Z,4.83
2018-05-10T10:50:03.007Z,4.20
2018-05-10T10:52:30.631Z,3.90
2018-05-10T10:54:58.212Z,5.27
2018-05-10T10:57:25.796Z,3.60
2018-05-10T10:59:53.434Z,3.63
2018-05-10T11:02:21.032Z,4.00
2018-05-10T11:04:48.752Z,4.83
2018-05-10T11:07:16.415Z,4.07
2018-05-10T11:09:43.997Z,3.70
2018-05-10T11:12:11.580Z,3.90
2018-05-10T11:14:39.230Z,4.20
2018-05-10T11:17:06.852Z,2.77
2018-05-10T11:19:34.457Z,4.20
2018-05-10T11:22:02.081Z,3.67
2018-05-10T11:24:29.665Z,3.10
2018-05-10T11:26:57.348Z,4.07
2018-05-10T11:29:25.077Z,3.40
2018-05-10T11:31:52.660Z,3.70
2018-05-10T11:34:20.257Z,3.50
2018-05-10T11:36:47.956Z,4.63
2018-05-10T11:39:15.538Z,3.70
2018-05-10T11:41:43.130Z,3.90
2018-05-10T11:44:10.781Z,4.27
2018-05-10T11:46:38.413Z,3.77
2018-05-10T11:49:06.017Z,3.73
2018-05-10T11:51:33.729Z,2.47
2018-05-10T11:54:01.314Z,1.83
2018-05-10T11:56:28.925Z,2.90
2018-05-10T11:58:56.540Z,3.03
2018-05-10T12:01:24.114Z,2.67
2018-05-10T12:03:51.679Z,2.27
2018-05-10T12:06:19.351Z,3.47
2018-05-10T12:08:46.948Z,3.40
2018-05-10T12:11:14.532Z,2.90
2018-05-10T12:13:42.150Z,3.77
2018-05-10T12:16:09.754Z,1.90
2018-05-10T12:18:37.337Z,1.47
2018-05-10T12:21:04.936Z,3.30
2018-05-10T12:23:32.515Z,1.40
2018-05-10T12:26:00.095Z,1.60
2018-05-10T12:28:27.716Z,1.57
2018-05-10T12:30:55.334Z,2.23
2018-05-10T12:33:22.913Z,1.60
2018-05-10T12:35:50.530Z,2.00
2018-05-10T12:38:18.105Z,1.40
2018-05-10T12:40:45.677Z,1.53
2018-05-10T12:43:13.281Z,1.10
2018-05-10T12:45:40.861Z,1.67
2018-05-10T12:48:08.438Z,2.10
2018-05-10T12:50:36.082Z,2.23
2018-05-10T12:53:03.664Z,2.83
2018-05-10T12:55:31.261Z,1.77
2018-05-10T12:57:58.912Z,2.13
2018-05-10T13:00:26.499Z,2.80
2018-05-10T13:02:54.561Z,2.23
2018-05-10T13:05:22.095Z,3.57
2018-05-10T13:07:49.685Z,2.70
2018-05-10T13:10:17.272Z,3.50
2018-05-10T13:12:44.897Z,2.00
2018-05-10T13:15:12.484Z,3.50
2018-05-10T13:17:40.071Z,3.33
2018-05-10T13:20:07.700Z,2.63
2018-05-10T13:22:35.278Z,2.47
2018-05-10T13:25:02.857Z,2.20
2018-05-10T13:27:30.473Z,2.33
2018-05-10T13:29:58.039Z,2.50
2018-05-10T13:32:25.653Z,1.80
2018-05-10T13:34:53.267Z,1.53
2018-05-10T13:37:20.849Z,1.50
2018-05-10T13:39:48.425Z,2.00
2018-05-10T13:42:16.041Z,1.50
2018-05-10T13:44:43.619Z,1.50
2018-05-10T13:47:11.394Z,1.53
2018-05-10T13:49:38.869Z,2.70
2018-05-10T13:52:06.444Z,2.30
2018-05-10T13:54:34.027Z,4.57
2018-05-10T13:57:01.641Z,2.23
2018-05-10T13:59:29.222Z,2.17
2018-05-10T14:01:56.790Z,2.50
2018-05-10T14:04:24.450Z,4.40
2018-05-10T14:06:52.024Z,2.10
2018-05-10T14:09:19.608Z,2.40
2018-05-10T14:11:47.213Z,2.53
2018-05-10T14:14:14.772Z,2.53
2018-05-10T14:16:42.343Z,3.70
2018-05-10T14:19:09.959Z,4.50
2018-05-10T14:21:37.554Z,3.10
2018-05-10T14:24:05.111Z,4.30
2018-05-10T14:26:32.757Z,2.27
2018-05-10T14:29:00.332Z,3.07
2018-05-10T14:31:27.888Z,2.53
2018-05-10T14:33:55.504Z,2.40
2018-05-10T14:36:23.090Z,3.10
2018-05-10T14:38:50.800Z,5.00
2018-05-10T14:41:18.444Z,3.53
2018-05-10T14:43:46.001Z,3.30
2018-05-10T14:46:13.620Z,2.87
2018-05-10T14:48:41.228Z,3.57
2018-05-10T14:51:08.797Z,3.10
2018-05-10T14:53:36.424Z,3.17
2018-05-10T14:56:04.033Z,3.27
2018-05-10T14:58:31.685Z,3.33
2018-05-10T15:00:59.277Z,3.80
2018-05-10T15:03:26.892Z,4.83
2018-05-10T15:05:54.483Z,2.50
2018-05-10T15:08:22.152Z,3.50
2018-05-10T15:10:49.789Z,3.53
2018-05-10T15:13:17.380Z,4.00
2018-05-10T15:15:44.943Z,3.40
2018-05-10T15:18:12.545Z,3.50
2018-05-10T15:20:40.105Z,3.33
2018-05-10T15:23:07.685Z,4.70
2018-05-10T15:25:35.286Z,7.20
2018-05-10T15:28:02.859Z,4.53
2018-05-10T15:30:30.429Z,4.93
2018-05-10T15:32:58.082Z,6.97
2018-05-10T15:35:25.652Z,5.07
2018-05-10T15:37:53.229Z,5.80
2018-05-10T15:40:20.888Z,6.30
2018-05-10T15:42:48.473Z,5.93
2018-05-10T15:45:16.058Z,5.17
2018-05-10T15:47:43.677Z,6.40
2018-05-10T15:50:11.427Z,6.43
2018-05-10T15:52:38.988Z,4.70
2018-05-10T15:55:06.617Z,7.23
2018-05-10T15:57:34.281Z,6.70
2018-05-10T16:00:01.873Z,6.80
2018-05-10T16:02:29.485Z,7.63
2018-05-10T16:04:57.060Z,6.53
2018-05-10T16:07:24.645Z,6.93
2018-05-10T16:09:52.485Z,7.33
2018-05-10T16:12:20.073Z,8.67
2018-05-10T16:14:47.843Z,8.83
2018-05-10T16:17:15.486Z,8.23
2018-05-10T16:19:43.068Z,8.00
2018-05-10T16:22:10.661Z,7.57
2018-05-10T16:24:38.269Z,6.90
2018-05-10T16:27:05.867Z,7.30
2018-05-10T16:29:33.444Z,7.37
2018-05-10T16:32:01.178Z,7.13
2018-05-10T16:34:29.005Z,6.80
2018-05-10T16:36:56.575Z,5.73
2018-05-10T16:39:24.219Z,7.13
2018-05-10T16:41:52.021Z,6.20
2018-05-10T16:44:19.752Z,7.17
2018-05-10T16:46:47.543Z,6.13
2018-05-10T16:49:15.297Z,7.60
2018-05-10T16:51:42.886Z,7.93
2018-05-10T16:54:10.498Z,8.20
2018-05-10T16:56:38.194Z,6.90
2018-05-10T16:59:05.852Z,7.90
2018-05-10T17:01:33.534Z,7.37
2018-05-10T17:04:01.196Z,7.23
2018-05-10T17:06:28.785Z,6.33
2018-05-10T17:08:56.414Z,6.33
2018-05-10T17:11:24.312Z,7.00
2018-05-10T17:13:51.879Z,7.43
2018-05-10T17:16:19.710Z,9.07
2018-05-10T17:18:47.298Z,7.50
2018-05-10T17:21:14.883Z,7.77
2018-05-10T17:23:42.485Z,7.33
2018-05-10T17:26:10.045Z,7.30
2018-05-10T17:28:37.804Z,8.83
2018-05-10T17:31:05.463Z,8.60
2018-05-10T17:33:33.131Z,7.07
2018-05-10T17:36:00.803Z,7.00
2018-05-10T17:38:28.468Z,6.70
2018-05-10T17:40:56.037Z,7.67
2018-05-10T17:43:23.611Z,8.30
2018-05-10T17:45:51.220Z,8.03
2018-05-10T17:48:18.858Z,6.90
2018-05-10T17:50:46.391Z,7.20
2018-05-10T17:53:14.029Z,8.30
2018-05-10T17:55:41.608Z,8.53
2018-05-10T17:58:09.186Z,7.30
2018-05-10T18:00:37.095Z,8.20
2018-05-10T18:03:04.687Z,8.83
2018-05-10T18:05:32.272Z,8.30
2018-05-10T18:07:59.908Z,7.23
2018-05-10T18:10:27.478Z,8.40
2018-05-10T18:12:55.059Z,7.93
2018-05-10T18:15:22.789Z,8.97
2018-05-10T18:17:50.370Z,8.93
2018-05-10T18:20:17.943Z,7.00
2018-05-10T18:22:45.561Z,9.00
2018-05-10T18:25:13.152Z,9.60
2018-05-10T18:27:40.744Z,9.83
2018-05-10T18:30:08.359Z,8.47
2018-05-10T18:32:35.924Z,7.83
2018-05-10T18:35:03.504Z,8.60
2018-05-10T18:37:31.145Z,8.60
2018-05-10T18:39:58.732Z,7.90
2018-05-10T18:42:26.565Z,8.87
2018-05-10T18:44:54.207Z,8.00
2018-05-10T18:47:21.800Z,8.97
2018-05-10T18:49:49.386Z,9.10
2018-05-10T18:52:17.015Z,8.20
2018-05-10T18:54:44.673Z,8.27
2018-05-10T18:57:12.218Z,8.27
2018-05-10T18:59:39.833Z,9.20
2018-05-10T19:02:07.424Z,8.10
2018-05-10T19:04:35.018Z,9.53
2018-05-10T19:07:02.683Z,9.27
2018-05-10T19:09:30.271Z,9.10
2018-05-10T19:11:57.869Z,9.27
2018-05-10T19:14:25.492Z,9.50
2018-05-10T19:16:54.029Z,8.67
2018-05-10T19:19:21.623Z,8.67
2018-05-10T19:21:49.239Z,9.30
2018-05-10T19:24:16.814Z,8.80
2018-05-10T19:26:44.402Z,10.33
2018-05-10T19:29:12.298Z,10.40
2018-05-10T19:31:39.913Z,9.10
2018-05-10T19:34:07.496Z,9.30
2018-05-10T19:36:35.143Z,10.30
2018-05-10T19:39:02.722Z,10.83
2018-05-10T19:41:30.314Z,10.97
2018-05-10T19:43:57.928Z,8.77
2018-05-10T19:46:25.515Z,8.27
2018-05-10T19:48:53.113Z,8.70
2018-05-10T19:51:20.749Z,10.53
2018-05-10T19:53:48.348Z,9.80
2018-05-10T19:56:15.941Z,9.40
2018-05-10T19:58:43.560Z,9.43
2018-05-10T20:01:11.134Z,8.80
2018-05-10T20:03:38.724Z,9.93
2018-05-10T20:06:06.336Z,10.03
2018-05-10T20:08:33.969Z,9.97
2018-05-10T20:11:01.540Z,10.00
2018-05-10T20:13:29.161Z,9.03
2018-05-10T20:15:56.754Z,11.10
2018-05-10T20:18:24.331Z,9.33
2018-05-10T20:20:51.943Z,10.13
2018-05-10T20:23:19.523Z,8.73
2018-05-10T20:25:47.103Z,9.67
2018-05-10T20:28:14.732Z,10.97
2018-05-10T20:33:10.682Z,11.77
2018-05-10T20:35:38.312Z,9.63
2018-05-10T20:38:05.901Z,10.40
2018-05-10T20:40:33.486Z,10.97
2018-05-10T20:43:01.147Z,9.80
2018-05-10T20:45:28.727Z,9.77
2018-05-10T20:47:57.100Z,9.70
2018-05-10T20:50:24.718Z,9.10
2018-05-10T20:52:52.331Z,9.40
2018-05-10T20:55:19.913Z,9.70
2018-05-10T20:57:47.520Z,9.73
2018-05-10T21:00:15.144Z,10.40
2018-05-10T21:02:42.732Z,9.53
2018-05-10T21:05:10.364Z,9.40
2018-05-10T21:07:37.948Z,10.50
2018-05-10T21:10:05.571Z,10.37
2018-05-10T21:12:41.057Z,10.17
2018-05-10T21:15:08.657Z,10.97
2018-05-10T21:17:36.265Z,11.07
2018-05-10T21:20:03.971Z,9.37
2018-05-10T21:22:32.597Z,10.37
2018-05-10T21:25:00.193Z,11.17
2018-05-10T21:27:27.825Z,10.23
2018-05-10T21:29:55.429Z,10.20
2018-05-10T21:32:23.033Z,10.67
2018-05-10T21:34:50.688Z,10.73
2018-05-10T21:37:18.377Z,12.00
2018-05-10T21:39:45.977Z,11.27
2018-05-10T21:42:13.623Z,10.23
2018-05-10T21:44:41.266Z,10.60
2018-05-10T21:47:08.855Z,11.53
2018-05-10T21:49:48.184Z,10.03
2018-05-10T21:52:15.776Z,9.80
2018-05-10T21:54:43.376Z,9.73
2018-05-10T21:57:11.005Z,10.10
2018-05-10T21:59:38.597Z,9.43
2018-05-10T22:02:06.223Z,10.13
2018-05-10T22:04:33.841Z,10.10
2018-05-10T22:07:01.481Z,10.00
2018-05-10T22:09:29.094Z,8.97
2018-05-10T22:11:56.728Z,9.47
2018-05-10T22:14:24.361Z,8.77
2018-05-10T22:16:51.970Z,11.03
2018-05-10T22:19:19.584Z,9.43
2018-05-10T22:21:47.192Z,10.30
2018-05-10T22:24:14.806Z,10.87
2018-05-10T22:26:42.460Z,11.60
2018-05-10T22:29:10.055Z,10.13
2018-05-10T22:31:37.662Z,10.70
2018-05-10T22:34:05.313Z,10.17
2018-05-10T22:36:32.902Z,11.37
2018-05-10T22:39:04.097Z,11.33
2018-05-10T22:41:31.718Z,11.03
2018-05-10T22:43:59.378Z,11.10
2018-05-10T22:46:27.006Z,14.70
2018-05-10T22:48:54.590Z,10.67
2018-05-10T22:51:23.105Z,11.40
2018-05-10T22:53:50.744Z,11.40
2018-05-10T22:56:18.365Z,11.50
2018-05-10T22:58:45.958Z,12.50
2018-05-10T23:01:13.676Z,10.97
2018-05-10T23:03:41.313Z,12.57
2018-05-10T23:06:11.225Z,9.90
2018-05-10T23:08:38.880Z,11.90
2018-05-10T23:11:06.487Z,11.33
2018-05-10T23:13:34.106Z,11.13
2018-05-10T23:16:01.753Z,11.33
2018-05-10T23:18:29.357Z,11.00
2018-05-10T23:20:56.974Z,12.03
2018-05-10T23:23:24.633Z,10.40
2018-05-10T23:25:52.228Z,12.70
2018-05-10T23:28:19.849Z,10.20
2018-05-10T23:30:47.501Z,11.27
2018-05-10T23:33:15.099Z,11.17
2018-05-10T23:35:42.694Z,11.27
2018-05-10T23:38:10.312Z,9.20
2018-05-10T23:40:37.907Z,10.83
2018-05-10T23:43:05.501Z,10.93
2018-05-10T23:45:33.136Z,10.90
2018-05-10T23:48:00.775Z,10.77
2018-05-10T23:50:28.366Z,10.67
2018-05-10T23:52:56.006Z,11.10
2018-05-10T23:55:23.641Z,11.90
2018-05-10T23:57:51.244Z,12.50
